Time;durP1;ratioP1;P1;durP2;ratioP2;P2;SDS_P1;SDS_P2;PMS_P1;PMS_P2;Temp;Humidity;BMP_temperature;BMP_pressure;BME280_temperature;BME280_humidity;BME280_pressure;Samples;Min_cycle;Max_cycle;Signal;HPM_P1;HPM_P2
2021/12/05 00:23:09;;;;;;;21.00;9.50;;;;;;;0.58;67.17;97008.54;103186;1320;25611;-86
2021/12/05 00:25:38;;;;;;;19.70;9.40;;;;;;;0.58;67.18;97014.35;103099;1318;137236;-86
2021/12/05 00:34:08;;;;;;;19.80;8.50;;;;;;;0.56;67.24;97009.16;103180;1322;22783;-86
2021/12/05 00:39:36;;;;;;;18.00;8.60;;;;;;;0.55;67.60;97000.77;103193;1322;25274;-87
2021/12/05 00:43:18;;;;;;;21.00;9.80;;;;;;;0.53;67.47;96996.86;103152;1321;137678;-87
2021/12/05 01:01:26;;;;;;;22.90;9.40;;;;;;;0.44;67.54;97003.45;102992;1321;137660;-87
2021/12/05 01:09:45;;;;;;;23.70;8.70;;;;;;;0.42;67.13;97003.20;103206;1317;22632;-85
2021/12/05 01:15:06;;;;;;;19.50;8.20;;;;;;;0.42;66.87;96998.46;103398;1322;23613;-87
2021/12/05 01:18:14;;;;;;;19.20;9.10;;;;;;;0.41;66.92;96998.05;103087;1316;137712;-86
2021/12/05 01:20:52;;;;;;;19.50;9.90;;;;;;;0.39;67.33;97005.70;103368;1316;30280;-89
2021/12/05 01:26:29;;;;;;;24.70;9.90;;;;;;;0.37;67.02;96995.54;103024;1323;22556;-87
2021/12/05 01:29:23;;;;;;;18.60;9.00;;;;;;;0.36;67.08;96994.95;103219;1321;23933;-87
2021/12/05 01:49:02;;;;;;;21.20;8.20;;;;;;;0.51;66.93;97005.70;103152;1322;137618;-88
2021/12/05 02:45:07;;;;;;;17.80;9.30;;;;;;;0.31;67.95;96997.22;103437;1316;22661;-88
2021/12/05 02:47:36;;;;;;;20.70;10.20;;;;;;;0.35;68.08;96997.16;103497;1316;24313;-88
2021/12/05 02:50:08;;;;;;;21.90;9.40;;;;;;;0.36;68.03;96995.65;103343;1315;138118;-88
2021/12/05 02:52:40;;;;;;;20.80;9.10;;;;;;;0.40;68.40;96997.87;103696;1316;30357;-88
2021/12/05 02:55:30;;;;;;;24.60;10.00;;;;;;;0.45;68.95;96998.90;103442;1322;137510;-87
2021/12/05 02:58:01;;;;;;;21.70;9.20;;;;;;;0.51;68.98;97002.20;103439;1319;22576;-88
2021/12/05 03:00:42;;;;;;;23.40;9.20;;;;;;;0.51;68.43;97003.15;103558;1319;137779;-87
2021/12/05 03:03:19;;;;;;;20.50;9.20;;;;;;;0.51;68.47;97007.98;103245;1322;30018;-87
2021/12/05 03:06:05;;;;;;;21.40;9.80;;;;;;;0.52;68.19;97011.23;103156;1323;25615;-87
2021/12/05 03:08:33;;;;;;;17.40;8.30;;;;;;;0.54;68.51;97008.10;103189;1320;137683;-88
2021/12/05 03:11:01;;;;;;;21.60;8.50;;;;;;;0.55;68.58;97006.66;103364;1320;25667;-88
2021/12/05 03:13:28;;;;;;;21.70;9.00;;;;;;;0.55;68.64;97007.37;103535;1315;137391;-87
2021/12/05 03:16:14;;;;;;;19.70;9.20;;;;;;;0.56;68.37;97004.49;103396;1318;24500;-88
2021/12/05 03:18:42;;;;;;;20.90;8.50;;;;;;;0.57;68.29;97001.38;103463;1320;137685;-88
2021/12/05 03:21:10;;;;;;;19.20;8.60;;;;;;;0.57;68.77;97003.70;103576;1322;22664;-88
2021/12/05 03:23:42;;;;;;;16.80;8.00;;;;;;;0.57;69.07;97001.73;103404;1321;22733;-88
2021/12/05 03:26:16;;;;;;;21.30;8.10;;;;;;;0.58;68.89;97001.78;103372;1316;137532;-88
2021/12/05 03:28:44;;;;;;;18.40;8.00;;;;;;;0.59;68.80;96995.64;103393;1323;24319;-88
2021/12/05 03:31:12;;;;;;;18.90;8.60;;;;;;;0.58;68.73;96989.71;103448;1318;137851;-87
2021/12/05 03:33:40;;;;;;;19.40;7.60;;;;;;;0.56;68.94;96992.89;103673;1317;22583;-88
2021/12/05 03:36:09;;;;;;;20.60;8.70;;;;;;;0.54;69.37;96991.70;103628;1317;22664;-88
2021/12/05 03:38:40;;;;;;;20.00;9.00;;;;;;;0.54;69.09;96992.33;103649;1322;138516;-88
2021/12/05 03:41:13;;;;;;;19.70;8.40;;;;;;;0.56;68.35;96990.83;103387;1316;22907;-88
2021/12/05 03:43:43;;;;;;;17.40;8.00;;;;;;;0.61;68.47;96986.80;103435;1323;137717;-88
2021/12/05 03:46:11;;;;;;;17.50;8.30;;;;;;;0.63;68.64;96986.08;103407;1321;25245;-87
2021/12/05 03:48:43;;;;;;;18.80;7.90;;;;;;;0.64;69.15;96986.55;103405;1321;137934;-88
2021/12/05 03:51:14;;;;;;;18.70;8.70;;;;;;;0.66;69.22;96988.36;103491;1322;22655;-88
2021/12/05 03:53:42;;;;;;;14.40;7.30;;;;;;;0.66;69.46;96985.60;103600;1315;23334;-88
2021/12/05 03:56:10;;;;;;;18.80;7.80;;;;;;;0.68;69.38;96987.59;103724;1316;137569;-88
2021/12/05 03:58:39;;;;;;;17.40;8.10;;;;;;;0.69;68.90;96990.55;103515;1320;23041;-88
2021/12/05 04:01:10;;;;;;;17.90;8.00;;;;;;;0.71;69.20;96992.63;103579;1320;137571;-87
2021/12/05 04:03:41;;;;;;;17.90;8.10;;;;;;;0.72;69.08;96994.91;103534;1322;23689;-87
2021/12/05 04:06:12;;;;;;;13.50;7.30;;;;;;;0.73;69.38;96994.66;103476;1321;24646;-88
2021/12/05 04:08:40;;;;;;;15.00;8.00;;;;;;;0.73;69.28;96999.33;103362;1316;137408;-88
2021/12/05 04:11:13;;;;;;;18.60;7.90;;;;;;;0.72;69.47;96995.45;103471;1322;25509;-88
2021/12/05 04:13:43;;;;;;;18.30;8.70;;;;;;;0.71;69.38;96997.93;103435;1321;137695;-88
2021/12/05 04:16:13;;;;;;;20.60;10.00;;;;;;;0.70;69.39;96998.05;103939;1316;25704;-88
2021/12/05 04:18:45;;;;;;;19.80;9.80;;;;;;;0.68;69.50;97000.14;103352;1320;138419;-88
2021/12/05 04:21:17;;;;;;;21.70;10.70;;;;;;;0.68;69.67;97000.05;103837;1316;23381;-87
2021/12/05 04:23:47;;;;;;;19.90;9.70;;;;;;;0.70;70.25;97005.60;103988;1316;25366;-87
2021/12/05 04:26:17;;;;;;;20.30;9.90;;;;;;;0.73;70.66;97008.80;103446;1322;137932;-87
2021/12/05 04:28:46;;;;;;;22.30;10.90;;;;;;;0.76;70.72;97010.95;103828;1317;22605;-87
2021/12/05 04:31:15;;;;;;;24.10;11.00;;;;;;;0.79;71.04;97012.59;103716;1316;137672;-88
2021/12/05 04:33:44;;;;;;;27.30;11.10;;;;;;;0.80;71.46;97013.81;103841;1320;22612;-88
2021/12/05 04:36:12;;;;;;;21.70;11.80;;;;;;;0.80;71.76;97014.52;103626;1319;24500;-89
2021/12/05 04:38:39;;;;;;;28.20;13.60;;;;;;;0.81;71.88;97017.95;103796;1316;137724;-88
2021/12/05 04:41:07;;;;;;;28.40;13.50;;;;;;;0.80;72.31;97019.00;103509;1320;23229;-89
2021/12/05 04:43:48;;;;;;;27.50;14.70;;;;;;;0.79;72.19;97021.90;103458;1317;137754;-88
2021/12/05 04:46:20;;;;;;;24.50;14.10;;;;;;;0.77;72.17;97025.87;103503;1317;272268;-88
2021/12/05 04:48:50;;;;;;;26.60;13.80;;;;;;;0.78;72.56;97029.04;103458;1317;138783;-88
2021/12/05 04:51:20;;;;;;;25.20;13.90;;;;;;;0.77;73.07;97028.80;103631;1316;22565;-87
2021/12/05 04:53:51;;;;;;;25.30;12.60;;;;;;;0.76;73.32;97027.48;103423;1316;142621;-88
2021/12/05 04:56:19;;;;;;;23.70;12.60;;;;;;;0.74;73.80;97030.23;103569;1316;24317;-88
2021/12/05 04:58:47;;;;;;;26.80;11.80;;;;;;;0.73;73.82;97033.81;103431;1316;22751;-88
2021/12/05 05:01:21;;;;;;;26.20;12.90;;;;;;;0.71;74.20;97040.75;103453;1316;137514;-88
2021/12/05 05:03:51;;;;;;;26.10;12.90;;;;;;;0.69;74.79;97035.38;103579;1321;22600;-87
2021/12/05 05:06:19;;;;;;;25.20;13.10;;;;;;;0.65;74.97;97040.54;103450;1316;138309;-88
2021/12/05 05:08:51;;;;;;;22.60;11.90;;;;;;;0.63;74.98;97039.71;103584;1314;22586;-88
2021/12/05 05:11:21;;;;;;;21.90;11.90;;;;;;;0.61;75.58;97036.49;103288;1321;137839;-88
2021/12/05 05:14:03;;;;;;;23.80;11.20;;;;;;;0.61;75.74;97040.11;103499;1318;22791;-88
2021/12/05 05:16:30;;;;;;;23.40;11.50;;;;;;;0.61;75.78;97041.95;103584;1316;25516;-88
2021/12/05 05:18:59;;;;;;;22.00;11.10;;;;;;;0.60;75.94;97041.05;103470;1315;137780;-88
2021/12/05 05:44:12;;;;;;;18.40;9.50;;;;;;;0.53;78.09;97053.73;103514;1321;27181;-87
2021/12/05 05:52:13;;;;;;;20.50;10.20;;;;;;;0.42;79.02;97059.23;103398;1322;23443;-89
2021/12/05 05:54:44;;;;;;;17.70;10.80;;;;;;;0.40;79.27;97062.34;103531;1316;137592;-89
2021/12/05 06:00:20;;;;;;;20.60;10.40;;;;;;;0.38;79.95;97066.70;103334;1317;137685;-88
2021/12/05 06:05:34;;;;;;;19.00;9.70;;;;;;;0.39;80.13;97070.86;103162;1316;137612;-89
2021/12/05 06:08:01;;;;;;;18.90;10.00;;;;;;;0.36;80.40;97074.48;103435;1317;25368;-88
2021/12/05 06:10:31;;;;;;;20.20;10.60;;;;;;;0.35;80.72;97077.52;103390;1322;22599;-89
2021/12/05 06:12:59;;;;;;;17.20;9.60;;;;;;;0.33;80.88;97080.17;103307;1320;138829;-89
2021/12/05 06:15:28;;;;;;;17.40;9.60;;;;;;;0.35;81.35;97077.65;103277;1319;25242;-88
2021/12/05 06:17:56;;;;;;;;;;;;;;;0.35;81.39;97082.52;103391;1318;137414;-89
2021/12/05 06:20:26;;;;;;;15.90;8.80;;;;;;;0.35;81.63;97080.29;103384;1321;22706;-88
2021/12/05 06:23:09;;;;;;;17.70;10.40;;;;;;;0.34;81.90;97083.79;103424;1315;137681;-89
2021/12/05 06:25:39;;;;;;;19.80;10.50;;;;;;;0.34;82.17;97083.55;103526;1316;22733;-89
2021/12/05 06:28:12;;;;;;;16.70;9.80;;;;;;;0.35;82.07;97083.83;103472;1319;25435;-89
2021/12/05 06:47:14;;;;;;;15.50;8.70;;;;;;;0.47;82.92;97098.43;103279;1320;137693;-88
2021/12/05 06:49:43;;;;;;;15.60;8.70;;;;;;;0.47;83.09;97098.79;103350;1323;22608;-89
2021/12/05 06:52:10;;;;;;;;;;;;;;;0.47;83.31;97103.86;103475;1317;22571;-88
2021/12/05 06:54:40;;;;;;;15.10;8.30;;;;;;;0.47;83.49;97101.73;103529;1319;124505;-89
2021/12/05 06:57:08;;;;;;;13.70;8.10;;;;;;;0.47;83.45;97105.40;103619;1317;22711;-89
2021/12/05 06:59:39;;;;;;;14.40;7.70;;;;;;;0.48;83.51;97110.95;103350;1318;138027;-88
2021/12/05 07:02:09;;;;;;;15.90;8.10;;;;;;;0.51;83.62;97114.93;103523;1319;26733;-89
2021/12/05 07:07:11;;;;;;;14.30;8.50;;;;;;;0.55;83.74;97116.96;103352;1316;137525;-89
2021/12/05 07:09:40;;;;;;;15.00;8.20;;;;;;;0.59;83.63;97118.55;103383;1317;22608;-88
2021/12/05 07:15:14;;;;;;;12.60;7.20;;;;;;;0.70;83.86;97125.95;103473;1316;25239;-88
2021/12/05 07:26:06;;;;;;;12.90;8.40;;;;;;;0.93;83.92;97137.98;104051;1315;22766;-87
2021/12/05 07:42:51;;;;;;;16.00;8.30;;;;;;;1.20;83.41;97132.97;103346;1318;137671;-88
2021/12/05 07:45:23;;;;;;;;;;;;;;;1.20;83.37;97128.55;104171;1315;24225;-89
2021/12/05 07:47:54;;;;;;;16.90;9.20;;;;;;;1.22;83.28;97131.55;103594;1320;124548;-88
2021/12/05 07:53:34;;;;;;;17.10;8.50;;;;;;;1.31;83.70;97134.52;103337;1316;137964;-90
2021/12/05 07:56:10;;;;;;;15.10;9.10;;;;;;;1.34;83.32;97133.19;104490;1316;25316;-88
2021/12/05 08:16:01;;;;;;;18.90;9.50;;;;;;;1.39;82.85;97129.48;103475;1318;22619;-86
2021/12/05 08:18:42;;;;;;;19.80;11.00;;;;;;;1.40;82.85;97133.27;103636;1315;138205;-86
2021/12/05 08:21:11;;;;;;;15.10;9.40;;;;;;;1.41;82.94;97136.89;103534;1320;22581;-87
2021/12/05 08:23:52;;;;;;;16.00;9.60;;;;;;;1.44;82.98;97137.52;103373;1320;137778;-87
2021/12/05 08:26:26;;;;;;;17.50;10.20;;;;;;;1.44;83.17;97135.33;103697;1319;22760;-87
2021/12/05 08:34:49;;;;;;;21.90;11.50;;;;;;;1.46;83.12;97144.19;103577;1317;22617;-86
2021/12/05 09:25:54;;;;;;;23.50;12.90;;;;;;;1.97;82.65;97157.39;103495;1316;138254;-85
2021/12/05 09:31:20;;;;;;;26.40;13.60;;;;;;;2.09;82.45;97146.98;103206;1321;137499;-85
2021/12/05 10:20:42;;;;;;;24.90;14.80;;;;;;;2.38;81.21;97174.46;103301;1315;138018;-86
2021/12/05 10:38:01;;;;;;;24.80;14.60;;;;;;;2.67;81.55;97174.20;103988;1320;138144;-85
2021/12/05 10:43:56;;;;;;;25.60;13.60;;;;;;;2.79;81.36;97180.78;104128;1318;137556;-86
2021/12/05 10:46:25;;;;;;;23.00;13.30;;;;;;;2.82;81.17;97180.00;105398;1315;22482;-86
2021/12/05 10:49:04;;;;;;;27.70;14.60;;;;;;;2.84;81.12;97179.69;106085;1322;138039;-86
2021/12/05 10:51:38;;;;;;;27.20;15.30;;;;;;;2.86;80.87;97180.19;105725;1316;22588;-85
2021/12/05 10:54:11;;;;;;;28.00;15.80;;;;;;;2.87;80.64;97172.05;105316;1317;22590;-85
2021/12/05 10:56:44;;;;;;;27.00;15.80;;;;;;;2.90;80.90;97175.23;106031;1315;137508;-85
2021/12/05 10:59:37;;;;;;;32.30;17.50;;;;;;;2.95;80.83;97176.00;106298;1322;30516;-85
2021/12/05 11:02:24;;;;;;;29.40;17.00;;;;;;;2.97;80.91;97179.59;104276;1318;137971;-85
2021/12/05 11:04:52;;;;;;;30.40;17.90;;;;;;;2.98;80.76;97184.88;104179;1322;22594;-84
2021/12/05 11:07:24;;;;;;;28.30;17.50;;;;;;;2.99;80.74;97188.69;103951;1321;138508;-85
2021/12/05 11:09:57;;;;;;;33.20;18.20;;;;;;;2.99;80.66;97193.27;104139;1323;30595;-84
2021/12/05 11:12:38;;;;;;;29.50;17.80;;;;;;;2.96;80.60;97195.33;103553;1316;137781;-84
2021/12/05 11:15:12;;;;;;;35.90;19.10;;;;;;;2.95;80.66;97189.39;103609;1317;22660;-84
2021/12/05 11:17:46;;;;;;;31.30;18.00;;;;;;;2.92;80.75;97186.94;103599;1321;22619;-84
2021/12/05 11:20:31;;;;;;;31.10;17.90;;;;;;;2.91;80.94;97189.96;103828;1315;137991;-85
2021/12/05 11:23:01;;;;;;;31.80;18.40;;;;;;;2.88;80.73;97190.53;103840;1319;24420;-84
2021/12/05 11:25:35;;;;;;;34.30;17.10;;;;;;;2.86;80.83;97187.73;104296;1315;138276;-84
2021/12/05 11:28:08;;;;;;;36.80;20.10;;;;;;;2.85;80.91;97185.84;103680;1320;22720;-85
2021/12/05 11:30:40;;;;;;;37.60;19.80;;;;;;;2.84;80.94;97178.94;103726;1316;138220;-84
2021/12/05 11:33:18;;;;;;;33.90;18.00;;;;;;;2.82;80.77;97175.49;104051;1318;22746;-84
2021/12/05 11:35:53;;;;;;;29.90;17.90;;;;;;;2.77;80.90;97176.42;103795;1323;24464;-85
2021/12/05 11:38:29;;;;;;;30.10;16.70;;;;;;;2.79;81.07;97177.86;103626;1320;138379;-85
2021/12/05 11:41:05;;;;;;;29.70;17.30;;;;;;;2.82;81.13;97179.14;103991;1316;24329;-85
2021/12/05 11:43:54;;;;;;;37.40;19.20;;;;;;;2.83;81.09;97183.48;103944;1317;137582;-85
2021/12/05 11:46:31;;;;;;;28.80;14.90;;;;;;;2.83;81.26;97186.82;104344;1316;22617;-85
2021/12/05 11:49:02;;;;;;;28.80;15.60;;;;;;;2.84;81.36;97196.19;104336;1315;137759;-85
2021/12/05 11:51:47;;;;;;;31.30;17.80;;;;;;;2.84;81.43;97203.51;103619;1315;24676;-85
2021/12/05 11:54:30;;;;;;;31.80;16.60;;;;;;;2.84;81.42;97202.70;103940;1323;23344;-84
2021/12/05 11:57:00;;;;;;;32.20;17.80;;;;;;;2.85;81.45;97203.83;104558;1321;137742;-85
2021/12/05 11:59:33;;;;;;;32.50;17.80;;;;;;;2.84;81.43;97204.37;103909;1318;25332;-84
2021/12/05 12:02:23;;;;;;;34.00;17.30;;;;;;;2.85;81.54;97209.20;104339;1320;138413;-84
2021/12/05 12:05:01;;;;;;;32.40;18.30;;;;;;;2.83;81.53;97211.44;104005;1315;25319;-84
2021/12/05 12:07:36;;;;;;;29.00;15.20;;;;;;;2.82;81.38;97211.06;103723;1316;138426;-85
2021/12/05 12:10:24;;;;;;;30.80;15.80;;;;;;;2.81;81.22;97207.48;104105;1320;22652;-85
2021/12/05 12:13:07;;;;;;;31.40;15.50;;;;;;;2.79;81.21;97218.42;103774;1320;138443;-84
2021/12/05 12:15:35;;;;;;;32.60;16.80;;;;;;;2.80;81.18;97233.19;104049;1319;24202;-84
2021/12/05 12:18:16;;;;;;;33.50;17.50;;;;;;;2.80;81.41;97238.55;104070;1320;25353;-85
2021/12/05 12:20:46;;;;;;;31.00;17.30;;;;;;;2.80;81.33;97240.80;103665;1315;138125;-85
2021/12/05 12:23:16;;;;;;;38.90;20.50;;;;;;;2.79;81.21;97247.59;104607;1319;22737;-85
2021/12/05 12:25:48;;;;;;;33.60;17.70;;;;;;;2.78;81.27;97249.58;104327;1315;138739;-84
2021/12/05 12:28:16;;;;;;;37.60;18.30;;;;;;;2.79;81.32;97252.17;103972;1322;22687;-85
2021/12/05 12:30:48;;;;;;;38.30;19.80;;;;;;;2.78;81.36;97244.54;103736;1317;137882;-85
2021/12/05 12:33:32;;;;;;;41.60;20.30;;;;;;;2.79;81.46;97240.92;103765;1321;22812;-85
2021/12/05 12:36:00;;;;;;;39.20;21.30;;;;;;;2.77;81.54;97242.82;104011;1316;22653;-84
2021/12/05 12:38:30;;;;;;;35.80;19.90;;;;;;;2.75;81.54;97247.67;103847;1321;138400;-85
2021/12/05 12:41:18;;;;;;;35.40;19.80;;;;;;;2.74;81.49;97240.32;103717;1316;23604;-85
2021/12/05 12:43:55;;;;;;;35.40;20.20;;;;;;;2.71;81.36;97237.01;103775;1316;137646;-84
2021/12/05 12:46:40;;;;;;;39.20;19.60;;;;;;;2.68;81.43;97238.63;101535;1320;3329403;-85
2021/12/05 12:49:14;;;;;;;32.50;18.60;;;;;;;2.62;81.65;97242.44;103893;1316;138463;-84
2021/12/05 12:52:14;;;;;;;37.80;20.00;;;;;;;2.60;81.83;97238.13;103942;1316;31532;-84
2021/12/05 12:54:58;;;;;;;40.80;19.50;;;;;;;2.59;81.58;97242.77;103998;1323;138572;-85
2021/12/05 12:57:43;;;;;;;36.50;19.60;;;;;;;2.58;81.89;97241.08;104191;1317;22696;-84
2021/12/05 13:00:15;;;;;;;42.40;22.10;;;;;;;2.61;81.84;97241.77;104260;1316;23351;-84
2021/12/05 13:03:02;;;;;;;41.60;22.40;;;;;;;2.61;81.92;97235.31;103762;1322;137887;-85
2021/12/05 13:11:16;;;;;;;41.60;24.70;;;;;;;2.50;81.97;97224.18;104055;1321;23466;-84
2021/12/05 13:13:57;;;;;;;45.40;23.70;;;;;;;2.51;82.11;97222.19;104430;1316;138574;-84
2021/12/05 13:16:32;;;;;;;52.10;26.00;;;;;;;2.54;82.27;97220.66;104952;1317;22598;-84
2021/12/05 13:19:06;;;;;;;47.40;24.10;;;;;;;2.55;82.21;97218.05;103825;1315;138163;-84
2021/12/05 13:21:50;;;;;;;49.60;28.20;;;;;;;2.50;82.06;97219.39;104227;1321;22753;-84
2021/12/05 13:24:23;;;;;;;55.10;29.70;;;;;;;2.48;82.31;97222.43;104048;1316;25359;-84
2021/12/05 13:26:51;;;;;;;51.20;27.90;;;;;;;2.50;82.34;97218.66;103908;1316;138615;-85
2021/12/05 13:29:25;;;;;;;49.00;27.20;;;;;;;2.53;82.50;97222.34;104040;1317;24218;-85
2021/12/05 13:31:56;;;;;;;49.10;28.30;;;;;;;2.57;82.42;97227.66;103669;1319;138006;-84
2021/12/05 13:34:30;;;;;;;48.20;27.70;;;;;;;2.59;82.46;97233.30;104096;1318;22657;-84
2021/12/05 13:36:58;;;;;;;48.60;29.70;;;;;;;2.60;82.52;97237.02;103828;1318;138078;-84
2021/12/05 13:39:30;;;;;;;56.00;31.20;;;;;;;2.61;82.53;97234.52;103977;1317;22617;-84
2021/12/05 13:42:25;;;;;;;66.20;34.70;;;;;;;2.64;82.55;97229.44;104313;1320;22608;-84
2021/12/05 13:45:13;;;;;;;59.50;31.70;;;;;;;2.68;82.41;97229.27;104462;1315;138406;-85
2021/12/05 13:47:45;;;;;;;63.80;35.10;;;;;;;2.70;82.26;97232.84;103877;1316;22696;-84
2021/12/05 13:50:21;;;;;;;73.20;39.10;;;;;;;2.73;82.47;97238.14;103781;1319;138381;-84
2021/12/05 13:52:59;;;;;;;57.30;28.70;;;;;;;2.76;82.59;97245.48;103406;1318;144737;-84
2021/12/05 13:56:02;;;;;;;55.10;29.90;;;;;;;2.77;82.33;97242.07;103314;1317;24844;-84
2021/12/05 13:58:53;;;;;;;53.40;26.90;;;;;;;2.80;82.13;97242.00;103247;1318;138306;-84
2021/12/05 14:01:44;;;;;;;44.80;24.90;;;;;;;2.79;82.01;97237.45;103588;1316;22593;-84
2021/12/05 14:04:23;;;;;;;43.90;24.90;;;;;;;2.80;82.29;97241.51;104718;1320;137699;-84
2021/12/05 14:07:12;;;;;;;47.00;24.70;;;;;;;2.81;82.14;97242.61;103195;1323;139313;-84
2021/12/05 14:09:48;;;;;;;57.70;29.40;;;;;;;2.79;82.22;97247.63;103548;1315;22596;-84
2021/12/05 14:12:31;;;;;;;38.80;23.20;;;;;;;2.79;82.24;97248.33;103349;1316;138793;-84
2021/12/05 14:15:03;;;;;;;45.50;25.00;;;;;;;2.77;82.11;97253.57;103424;1322;22678;-84
2021/12/05 14:17:34;;;;;;;43.50;24.50;;;;;;;2.75;82.20;97256.57;103417;1321;25426;-84
2021/12/05 14:20:11;;;;;;;35.80;21.70;;;;;;;2.70;82.22;97253.64;103378;1314;137859;-84
2021/12/05 14:22:40;;;;;;;40.60;24.10;;;;;;;2.64;82.09;97251.27;103442;1315;24291;-84
2021/12/05 14:25:21;;;;;;;41.10;22.20;;;;;;;2.61;82.31;97256.98;103525;1315;138281;-84
2021/12/05 14:27:57;;;;;;;38.60;22.30;;;;;;;2.59;82.41;97256.75;103846;1315;24474;-84
2021/12/05 14:30:28;;;;;;;44.30;25.50;;;;;;;2.56;82.41;97259.80;103977;1315;138271;-85
2021/12/05 14:32:58;;;;;;;49.30;25.50;;;;;;;2.56;82.72;97256.94;104091;1316;24310;-86
2021/12/05 14:35:32;;;;;;;46.60;25.00;;;;;;;2.57;82.87;97257.02;103995;1316;22658;-87
2021/12/05 14:38:03;;;;;;;49.10;27.20;;;;;;;2.59;82.87;97262.13;103505;1316;137618;-86
2021/12/05 14:40:33;;;;;;;46.20;25.70;;;;;;;2.60;82.89;97263.27;103945;1321;25500;-85
2021/12/05 14:43:07;;;;;;;50.70;26.20;;;;;;;2.61;82.82;97265.56;104235;1316;138343;-85
2021/12/05 14:45:39;;;;;;;47.10;27.00;;;;;;;2.63;82.91;97272.46;104015;1315;22600;-85
2021/12/05 14:48:12;;;;;;;47.80;27.80;;;;;;;2.67;83.19;97276.70;103320;1315;137939;-85
2021/12/05 14:50:44;;;;;;;57.00;31.50;;;;;;;2.70;83.04;97281.11;103812;1319;22574;-86
2021/12/05 14:53:18;;;;;;;64.20;32.90;;;;;;;2.71;82.92;97284.63;103651;1321;22579;-85
2021/12/05 14:56:02;;;;;;;52.50;29.50;;;;;;;2.67;82.61;97287.05;103445;1319;138728;-86
2021/12/05 14:58:41;;;;;;;48.50;26.20;;;;;;;2.64;82.63;97289.64;103903;1316;22586;-86
2021/12/05 15:01:08;;;;;;;50.00;27.60;;;;;;;2.63;82.84;97292.42;103275;1316;137777;-85
2021/12/05 15:03:38;;;;;;;44.40;25.70;;;;;;;2.63;83.04;97298.34;103688;1316;23965;-86
2021/12/05 15:06:07;;;;;;;48.60;28.50;;;;;;;2.64;83.06;97302.38;103334;1321;145179;-86
2021/12/05 15:08:36;;;;;;;49.70;27.70;;;;;;;2.65;83.24;97305.10;103674;1316;22731;-86
2021/12/05 15:11:07;;;;;;;;;;;;;;;2.66;83.29;97307.40;103794;1317;22824;-86
2021/12/05 15:13:35;;;;;;;43.30;25.20;;;;;;;2.69;83.32;97306.13;104524;1320;124227;-86
2021/12/05 15:16:04;;;;;;;40.60;23.70;;;;;;;2.70;83.12;97311.54;104151;1316;22662;-84
2021/12/05 15:18:39;;;;;;;47.90;26.00;;;;;;;2.74;83.30;97315.79;103922;1315;137608;-82
2021/12/05 15:21:08;;;;;;;49.00;27.40;;;;;;;2.75;83.06;97324.11;104270;1317;23131;-81
2021/12/05 15:23:40;;;;;;;67.10;34.20;;;;;;;2.75;83.15;97324.59;104339;1315;137690;-81
2021/12/05 15:26:07;;;;;;;72.60;37.80;;;;;;;2.77;83.18;97327.52;103621;1315;30592;-81
2021/12/05 15:28:36;;;;;;;90.30;43.40;;;;;;;2.80;83.17;97326.20;103991;1315;24100;-80
2021/12/05 15:31:06;;;;;;;102.60;50.00;;;;;;;2.82;82.95;97329.64;103317;1315;138075;-81
2021/12/05 15:33:34;;;;;;;87.80;46.50;;;;;;;2.84;83.14;97331.41;103946;1316;23104;-83
2021/12/05 15:36:03;;;;;;;75.20;40.70;;;;;;;2.86;83.09;97336.85;103525;1316;137857;-84
2021/12/05 15:38:33;;;;;;;71.20;40.60;;;;;;;2.84;82.90;97341.21;104447;1315;22600;-85
2021/12/05 15:41:17;;;;;;;77.70;43.30;;;;;;;2.83;83.02;97345.86;103852;1315;137958;-86
2021/12/05 15:43:45;;;;;;;69.90;38.60;;;;;;;2.82;82.84;97346.20;104187;1316;22765;-78
2021/12/05 15:46:15;;;;;;;70.40;38.80;;;;;;;2.83;82.97;97345.37;104047;1316;22640;-85
2021/12/05 15:48:48;;;;;;;75.40;39.70;;;;;;;2.82;82.84;97342.72;103858;1315;137743;-86
2021/12/05 15:51:31;;;;;;;72.10;39.20;;;;;;;2.81;82.92;97343.33;103607;1315;22586;-89
2021/12/05 15:53:59;;;;;;;64.90;36.30;;;;;;;2.81;83.01;97341.53;103536;1317;137838;-90
2021/12/05 15:56:27;;;;;;;67.90;36.80;;;;;;;2.79;83.09;97348.10;104371;1316;22628;-87
2021/12/05 15:59:08;;;;;;;58.70;34.20;;;;;;;2.78;82.98;97357.81;104205;1318;23170;-87
2021/12/05 16:01:38;;;;;;;58.60;31.50;;;;;;;2.77;82.98;97356.75;103534;1317;137849;-86
2021/12/05 16:04:18;;;;;;;55.10;31.60;;;;;;;2.77;82.94;97358.03;103962;1318;22657;-88
2021/12/05 16:06:46;;;;;;;53.80;32.00;;;;;;;2.78;83.32;97352.36;103366;1322;137668;-86
2021/12/05 16:09:16;;;;;;;57.60;32.20;;;;;;;2.79;83.34;97347.02;103587;1316;22655;-86
2021/12/05 16:11:47;;;;;;;60.70;32.70;;;;;;;2.76;82.95;97346.18;103731;1323;137862;-86
2021/12/05 16:14:30;;;;;;;53.80;30.60;;;;;;;2.73;83.07;97345.18;104285;1316;22593;-86
2021/12/05 16:16:59;;;;;;;51.40;29.10;;;;;;;2.73;83.15;97338.24;104087;1316;30322;-86
2021/12/05 16:19:35;;;;;;;47.50;28.60;;;;;;;2.71;83.10;97340.37;103470;1319;137681;-86
2021/12/05 16:22:03;;;;;;;51.10;29.80;;;;;;;2.68;83.17;97342.83;103410;1317;25503;-88
2021/12/05 16:24:44;;;;;;;52.60;30.20;;;;;;;2.68;83.38;97341.10;103634;1316;137901;-89
2021/12/05 16:27:12;;;;;;;53.60;31.70;;;;;;;2.66;83.46;97331.76;103357;1325;31750;-84
2021/12/05 16:29:43;;;;;;;55.70;32.70;;;;;;;2.65;83.39;97337.20;103491;1316;138498;-86
2021/12/05 16:32:12;;;;;;;60.40;32.50;;;;;;;2.65;83.47;97343.23;103553;1316;22584;-82
2021/12/05 16:34:46;;;;;;;53.20;30.40;;;;;;;2.66;83.46;97342.96;103654;1315;22580;-85
2021/12/05 16:37:16;;;;;;;56.20;31.40;;;;;;;2.66;83.57;97346.52;103661;1319;137707;-93
2021/12/05 16:39:51;;;;;;;65.40;35.80;;;;;;;2.66;83.53;97348.88;103552;1318;24255;-90
2021/12/05 16:42:22;;;;;;;66.60;34.40;;;;;;;2.67;83.55;97345.69;103376;1316;137663;-85
2021/12/05 16:45:03;;;;;;;66.10;33.80;;;;;;;2.68;83.51;97346.42;104118;1316;22619;-93
2021/12/05 16:47:33;;;;;;;67.70;33.80;;;;;;;2.73;83.60;97346.67;104135;1320;138223;-95
2021/12/05 16:50:03;;;;;;;63.80;34.60;;;;;;;2.77;83.58;97350.84;104367;1316;22663;-91
2021/12/05 16:52:38;;;;;;;63.30;36.10;;;;;;;2.80;83.51;97348.20;104021;1315;24352;-93
2021/12/05 16:55:29;;;;;;;62.10;33.40;;;;;;;2.79;83.23;97349.78;103910;1320;137610;-91
2021/12/05 16:58:13;;;;;;;69.40;40.00;;;;;;;2.77;83.32;97346.49;103259;1316;22762;-88
2021/12/05 17:00:45;;;;;;;71.90;38.00;;;;;;;2.76;82.98;97352.27;103301;1317;138385;-85
2021/12/05 17:03:18;;;;;;;71.60;39.10;;;;;;;2.72;82.74;97363.55;103541;1321;23646;-86
2021/12/05 17:05:48;;;;;;;73.60;40.60;;;;;;;2.70;82.99;97362.66;103328;1319;138025;-86
2021/12/05 17:08:34;;;;;;;69.20;39.80;;;;;;;2.70;82.98;97364.52;103382;1319;31815;-87
2021/12/05 17:11:21;;;;;;;70.70;38.30;;;;;;;2.67;82.98;97361.61;103559;1317;137856;-86
2021/12/05 17:13:55;;;;;;;76.60;41.40;;;;;;;2.62;82.88;97360.16;103754;1316;22591;-86
2021/12/05 17:16:28;;;;;;;63.90;37.10;;;;;;;2.60;83.01;97361.98;103609;1316;22614;-86
2021/12/05 17:19:12;;;;;;;77.80;41.70;;;;;;;2.56;82.77;97362.08;103385;1318;138322;-86
2021/12/05 17:21:47;;;;;;;88.90;49.10;;;;;;;2.50;82.66;97362.95;103642;1317;25329;-86
2021/12/05 17:24:34;;;;;;;94.50;52.20;;;;;;;2.43;82.64;97366.83;103484;1316;137760;-86
2021/12/05 17:27:04;;;;;;;82.20;44.60;;;;;;;2.39;83.12;97367.40;103561;1316;24257;-86
2021/12/05 17:29:34;;;;;;;82.60;46.80;;;;;;;2.40;83.41;97366.45;103511;1319;137901;-86
2021/12/05 17:32:16;;;;;;;75.10;44.70;;;;;;;2.38;83.26;97365.80;103604;1316;23348;-86
2021/12/05 17:34:46;;;;;;;84.40;45.50;;;;;;;2.37;83.50;97363.79;103831;1316;24260;-86
2021/12/05 17:37:22;;;;;;;80.60;44.30;;;;;;;2.38;83.65;97362.85;103572;1316;137739;-86
2021/12/05 17:39:51;;;;;;;84.00;43.20;;;;;;;2.37;83.39;97360.48;103552;1320;22808;-86
2021/12/05 17:42:22;;;;;;;76.40;40.10;;;;;;;2.31;83.26;97359.40;103727;1321;138596;-86
2021/12/05 17:44:53;;;;;;;77.10;42.40;;;;;;;2.26;83.44;97361.71;103327;1321;22661;-86